Time;durP1;ratioP1;P1;durP2;ratioP2;P2;SDS_P1;SDS_P2;PMS_P1;PMS_P2;Temp;Humidity;BMP_temperature;BMP_pressure;BME280_temperature;BME280_humidity;BME280_pressure;Samples;Min_cycle;Max_cycle;Signal;HPM_P1;HPM_P2
2022/03/27 00:00:16;;;;;;;10.60;5.85;;;;;;;4.41;51.36;95725.69;5051311;28;20494;-68
2022/03/27 00:02:42;;;;;;;11.55;5.93;;;;;;;4.35;51.82;95715.69;5049932;28;20065;-68
2022/03/27 00:05:09;;;;;;;13.93;5.82;;;;;;;4.33;52.77;95723.44;5051000;28;20039;-69
2022/03/27 00:07:35;;;;;;;12.13;5.22;;;;;;;4.26;53.37;95724.59;5049692;28;20067;-68
2022/03/27 00:10:00;;;;;;;15.38;6.70;;;;;;;4.14;52.77;95718.25;5038740;28;20033;-68
2022/03/27 00:12:26;;;;;;;12.65;5.93;;;;;;;3.98;53.06;95706.97;5029661;28;20095;-69
2022/03/27 00:14:51;;;;;;;14.20;6.28;;;;;;;4.01;53.24;95720.53;5029748;28;20487;-69
2022/03/27 00:17:18;;;;;;;10.70;6.47;;;;;;;4.08;53.26;95702.28;5036455;28;20036;-68
2022/03/27 00:19:44;;;;;;;17.08;6.07;;;;;;;3.84;53.67;95712.69;5049532;28;20049;-69
2022/03/27 00:22:09;;;;;;;12.85;6.05;;;;;;;3.90;53.85;95704.75;5049558;28;20025;-68
2022/03/27 00:24:35;;;;;;;10.52;5.25;;;;;;;3.86;54.28;95700.63;5049512;28;20416;-68
2022/03/27 00:27:00;;;;;;;11.05;5.75;;;;;;;3.80;53.06;95706.03;5049154;28;20025;-69
2022/03/27 00:29:26;;;;;;;289.13;74.85;;;;;;;3.68;52.62;95706.53;5050664;28;20041;-69
2022/03/27 00:31:51;;;;;;;117.55;34.10;;;;;;;3.65;52.85;95704.94;5049079;28;20499;-68
2022/03/27 00:34:19;;;;;;;49.75;17.92;;;;;;;3.76;53.60;95707.03;5023017;28;20041;-68
2022/03/27 00:36:45;;;;;;;32.22;11.55;;;;;;;3.91;52.57;95706.41;5053426;28;20041;-68
2022/03/27 00:39:10;;;;;;;18.05;8.98;;;;;;;3.94;53.63;95701.13;5052114;28;20026;-68
2022/03/27 00:41:36;;;;;;;15.93;6.70;;;;;;;3.97;54.54;95697.59;5044905;28;20032;-68
2022/03/27 00:44:02;;;;;;;14.27;6.78;;;;;;;3.93;52.81;95694.31;5053873;28;20036;-68
2022/03/27 00:46:28;;;;;;;14.98;8.57;;;;;;;3.71;53.46;95688.41;5019035;28;20025;-68
2022/03/27 00:48:54;;;;;;;15.35;7.45;;;;;;;3.62;53.55;95688.78;5055704;28;20028;-68
2022/03/27 00:51:19;;;;;;;15.02;7.22;;;;;;;3.58;54.37;95686.34;5049058;28;21131;-68
2022/03/27 00:53:45;;;;;;;12.88;6.25;;;;;;;3.53;54.06;95683.13;5054047;28;20028;-69
2022/03/27 00:56:10;;;;;;;14.52;7.15;;;;;;;3.49;54.63;95678.19;5055285;28;20060;-68
2022/03/27 00:58:35;;;;;;;17.42;7.10;;;;;;;3.39;54.20;95667.44;5051458;28;20029;-68
2022/03/27 01:01:12;;;;;;;14.73;7.15;;;;;;;3.55;54.03;95676.19;5037477;28;20044;-68
2022/03/27 01:03:38;;;;;;;11.75;6.65;;;;;;;3.48;54.38;95677.38;5050008;28;20038;-69
2022/03/27 01:06:03;;;;;;;13.20;6.78;;;;;;;3.38;54.68;95665.78;5054432;28;20036;-68
2022/03/27 01:11:36;;;;;;;18.17;7.20;;;;;;;3.33;55.22;95660.00;5012095;28;20116;-68
2022/03/27 01:14:01;;;;;;;16.88;8.60;;;;;;;3.47;53.87;95664.56;5011398;28;20037;-68
2022/03/27 01:16:43;;;;;;;17.83;8.50;;;;;;;3.52;55.38;95673.75;5021399;28;20539;-68
2022/03/27 01:19:11;;;;;;;14.38;7.68;;;;;;;3.44;54.92;95675.81;5054639;28;20414;-68
2022/03/27 01:21:38;;;;;;;14.20;6.90;;;;;;;3.27;55.46;95673.09;5035984;28;20044;-68
2022/03/27 01:24:04;;;;;;;11.38;6.82;;;;;;;3.29;55.61;95666.19;5051493;28;20044;-68
2022/03/27 01:26:29;;;;;;;12.98;6.80;;;;;;;3.16;55.33;95673.53;5036185;28;20037;-68
2022/03/27 01:28:55;;;;;;;17.48;7.93;;;;;;;3.19;55.06;95662.31;5054513;28;20024;-68
2022/03/27 01:31:20;;;;;;;15.07;7.28;;;;;;;3.16;55.58;95675.25;5037015;28;20041;-69
2022/03/27 01:33:46;;;;;;;16.25;8.27;;;;;;;3.14;55.54;95680.44;5049792;28;20094;-68
2022/03/27 01:36:11;;;;;;;14.82;8.80;;;;;;;3.05;56.38;95678.25;5055651;28;20390;-68
2022/03/27 01:38:37;;;;;;;13.48;7.70;;;;;;;3.03;56.58;95673.16;5053032;28;20036;-68
2022/03/27 01:41:02;;;;;;;18.10;8.50;;;;;;;2.95;55.70;95680.34;5053510;28;20029;-68
2022/03/27 01:43:28;;;;;;;17.50;8.40;;;;;;;2.71;56.79;95673.59;5055498;28;20021;-68
2022/03/27 01:45:53;;;;;;;18.50;10.05;;;;;;;2.76;56.41;95677.66;5054216;28;20033;-68
2022/03/27 01:48:19;;;;;;;18.08;8.80;;;;;;;2.86;56.83;95678.13;5028552;28;20033;-68
2022/03/27 01:50:56;;;;;;;17.90;10.00;;;;;;;2.73;56.98;95680.34;5032476;28;20049;-68
2022/03/27 01:53:22;;;;;;;17.98;9.45;;;;;;;2.83;56.08;95680.81;5042298;28;20028;-68
2022/03/27 01:55:47;;;;;;;18.33;9.88;;;;;;;2.64;56.07;95684.06;5052318;28;20037;-68
2022/03/27 01:58:13;;;;;;;13.30;8.00;;;;;;;2.62;56.30;95680.75;5052155;28;20029;-68
2022/03/27 02:00:38;;;;;;;19.50;9.32;;;;;;;2.65;56.78;95682.38;5035556;28;20068;-68
2022/03/27 02:03:04;;;;;;;16.05;8.50;;;;;;;2.62;57.42;95674.78;5053280;28;20036;-68
2022/03/27 02:05:31;;;;;;;17.33;8.25;;;;;;;2.72;56.93;95672.69;5043649;28;20095;-68
2022/03/27 02:07:57;;;;;;;16.23;8.60;;;;;;;2.73;56.92;95682.91;5032061;28;20029;-68
2022/03/27 02:10:22;;;;;;;18.65;8.98;;;;;;;2.59;56.23;95680.88;5033238;28;20030;-68
2022/03/27 02:12:48;;;;;;;16.33;9.07;;;;;;;2.35;56.26;95661.28;5033005;28;20483;-68
2022/03/27 02:15:13;;;;;;;20.58;9.65;;;;;;;2.59;56.61;95680.00;5033359;28;20045;-68
2022/03/27 02:17:39;;;;;;;18.20;8.88;;;;;;;2.45;56.22;95672.84;5033048;28;20435;-68
2022/03/27 02:20:06;;;;;;;16.55;8.32;;;;;;;2.50;57.19;95681.19;5031733;28;20064;-68
2022/03/27 02:22:31;;;;;;;15.50;8.77;;;;;;;2.35;56.49;95658.69;5031179;28;20103;-68
2022/03/27 02:24:57;;;;;;;16.50;8.35;;;;;;;2.29;57.39;95671.75;5036034;28;20449;-68
2022/03/27 02:27:22;;;;;;;15.48;7.80;;;;;;;2.33;58.26;95693.81;5036944;28;20025;-68
2022/03/27 02:29:48;;;;;;;16.77;8.27;;;;;;;2.31;57.88;95682.78;5015049;28;20067;-68
2022/03/27 02:32:14;;;;;;;13.82;7.72;;;;;;;2.37;57.69;95685.13;5014837;28;20483;-68
2022/03/27 02:34:40;;;;;;;14.60;7.72;;;;;;;2.48;57.81;95683.00;5042728;28;20043;-68
2022/03/27 02:37:06;;;;;;;17.38;8.02;;;;;;;2.39;58.32;95688.47;5034296;28;20041;-68
2022/03/27 02:39:31;;;;;;;14.27;7.70;;;;;;;2.40;58.18;95685.03;5051307;28;20037;-68
2022/03/27 02:41:56;;;;;;;14.07;7.97;;;;;;;2.44;57.53;95684.00;5051229;28;20013;-68
2022/03/27 02:44:22;;;;;;;14.48;8.85;;;;;;;2.47;57.93;95668.50;5048496;28;20479;-68
2022/03/27 02:46:48;;;;;;;14.63;8.18;;;;;;;2.54;56.81;95697.34;5051075;28;20479;-68
2022/03/27 02:49:13;;;;;;;16.73;8.45;;;;;;;2.48;56.69;95700.97;5050989;28;20032;-68
2022/03/27 02:51:40;;;;;;;18.58;8.63;;;;;;;2.48;56.04;95708.66;5052783;28;20029;-68
2022/03/27 02:54:06;;;;;;;16.00;8.65;;;;;;;2.36;56.42;95698.84;5020203;28;20045;-69
2022/03/27 02:56:32;;;;;;;16.10;8.48;;;;;;;2.31;56.64;95693.03;5031766;28;20067;-68
2022/03/27 02:58:57;;;;;;;18.38;8.73;;;;;;;2.35;57.62;95712.56;5014637;28;20061;-68
2022/03/27 03:01:23;;;;;;;20.10;8.25;;;;;;;2.31;58.65;95710.97;5014646;28;20026;-69
2022/03/27 03:03:48;;;;;;;16.48;8.60;;;;;;;2.27;58.09;95696.59;5026050;28;20029;-68
2022/03/27 03:06:14;;;;;;;16.63;8.65;;;;;;;2.43;57.58;95715.69;5052508;28;20055;-68
2022/03/27 03:08:39;;;;;;;16.60;8.27;;;;;;;2.39;57.70;95707.25;5050871;28;20104;-68
2022/03/27 03:11:05;;;;;;;15.27;8.00;;;;;;;2.56;56.75;95724.56;5041074;28;20180;-68
2022/03/27 03:13:31;;;;;;;16.63;7.78;;;;;;;2.45;56.32;95713.88;5040820;28;20079;-69
2022/03/27 03:15:56;;;;;;;14.55;8.48;;;;;;;2.35;56.95;95715.13;5033940;28;20036;-68
2022/03/27 03:18:22;;;;;;;16.25;7.72;;;;;;;2.34;57.47;95705.72;5015793;28;20053;-68
2022/03/27 03:20:47;;;;;;;16.65;7.63;;;;;;;2.41;58.27;95704.63;5015231;28;20038;-68
2022/03/27 03:23:12;;;;;;;14.63;6.97;;;;;;;2.38;58.22;95707.31;5030587;28;20108;-68
2022/03/27 03:25:38;;;;;;;15.52;7.03;;;;;;;2.30;57.77;95709.31;5033622;28;20029;-68
2022/03/27 03:28:04;;;;;;;14.23;7.85;;;;;;;2.36;57.79;95707.34;5050445;28;20526;-68
2022/03/27 03:30:30;;;;;;;14.95;7.65;;;;;;;2.15;58.66;95700.47;5050455;28;20041;-68
2022/03/27 03:32:55;;;;;;;16.27;9.18;;;;;;;2.31;58.63;95695.59;5050212;28;20121;-68
2022/03/27 03:35:21;;;;;;;13.70;7.70;;;;;;;2.37;58.07;95700.53;5050435;28;20033;-68
2022/03/27 03:37:47;;;;;;;14.77;7.80;;;;;;;2.39;58.36;95701.28;5014403;28;20037;-68
2022/03/27 03:40:14;;;;;;;14.25;7.03;;;;;;;2.44;57.65;95701.94;5013970;28;20482;-68
2022/03/27 03:42:39;;;;;;;13.77;7.15;;;;;;;2.55;57.46;95706.69;5030176;28;20048;-68
2022/03/27 03:45:05;;;;;;;15.35;7.53;;;;;;;2.34;57.86;95706.59;5021567;28;20479;-68
2022/03/27 03:47:31;;;;;;;13.63;7.30;;;;;;;2.12;58.58;95711.66;5051477;28;20033;-68
2022/03/27 03:49:56;;;;;;;13.18;7.10;;;;;;;2.09;59.12;95705.78;5051365;28;20041;-68
2022/03/27 03:52:21;;;;;;;15.07;7.18;;;;;;;2.22;57.76;95717.28;5049993;28;20013;-69
2022/03/27 03:54:47;;;;;;;14.32;6.88;;;;;;;2.18;59.74;95716.56;5032850;28;20052;-68
2022/03/27 03:57:13;;;;;;;14.60;7.90;;;;;;;2.23;58.50;95709.53;5033360;28;20117;-68
2022/03/27 03:59:39;;;;;;;13.80;7.72;;;;;;;2.11;59.78;95702.28;5048242;28;20029;-68
2022/03/27 04:02:08;;;;;;;14.35;7.20;;;;;;;2.06;59.81;95711.84;5036270;28;20034;-68
2022/03/27 04:04:35;;;;;;;14.32;6.82;;;;;;;2.00;58.88;95717.19;5030979;28;20026;-68
2022/03/27 04:07:01;;;;;;;13.68;6.30;;;;;;;2.01;59.12;95719.72;5013489;28;20053;-68
2022/03/27 04:09:27;;;;;;;11.82;6.30;;;;;;;1.91;59.55;95727.78;5012695;28;20033;-68
2022/03/27 04:11:53;;;;;;;10.73;5.63;;;;;;;1.92;59.40;95726.88;5029818;28;20083;-68
2022/03/27 04:14:18;;;;;;;12.63;6.18;;;;;;;1.92;58.86;95729.44;5031936;28;20025;-68
2022/03/27 04:16:44;;;;;;;12.73;7.22;;;;;;;1.82;59.48;95733.22;5033264;28;20037;-68
2022/03/27 04:19:09;;;;;;;13.43;7.65;;;;;;;1.91;59.56;95738.03;5050861;28;20045;-68
2022/03/27 04:21:34;;;;;;;11.35;6.50;;;;;;;1.75;59.44;95741.09;5030117;28;20041;-68
2022/03/27 04:24:00;;;;;;;13.20;6.95;;;;;;;1.69;59.45;95737.91;5013364;28;20491;-68
2022/03/27 04:26:25;;;;;;;11.43;6.03;;;;;;;1.74;60.27;95742.00;5032119;28;20468;-68
2022/03/27 04:28:51;;;;;;;10.68;5.75;;;;;;;1.69;60.57;95743.03;5029964;28;20064;-68
2022/03/27 04:31:18;;;;;;;13.07;6.30;;;;;;;1.60;61.15;95745.91;5031203;28;20456;-68
2022/03/27 04:33:44;;;;;;;11.82;7.10;;;;;;;1.62;61.38;95742.41;5013232;28;20128;-69
2022/03/27 04:36:09;;;;;;;9.75;6.15;;;;;;;1.82;60.97;95749.44;5014382;28;20049;-68
2022/03/27 04:38:34;;;;;;;9.43;5.43;;;;;;;1.80;60.75;95751.19;5030778;28;20040;-68
2022/03/27 04:41:00;;;;;;;12.02;5.53;;;;;;;1.74;60.70;95741.16;5013187;28;20046;-68
2022/03/27 04:43:27;;;;;;;10.90;6.30;;;;;;;1.86;61.00;95740.72;5036514;28;20025;-68
2022/03/27 04:45:52;;;;;;;8.35;5.40;;;;;;;1.86;61.49;95761.22;5033807;28;20468;-68
2022/03/27 04:48:18;;;;;;;10.90;6.63;;;;;;;1.89;61.53;95745.75;4996539;28;20087;-68
2022/03/27 04:50:44;;;;;;;17.25;12.30;;;;;;;1.99;60.82;95765.06;5029377;28;20041;-68
2022/03/27 04:53:10;;;;;;;20.58;13.32;;;;;;;1.96;60.58;95766.91;5021932;28;20083;-68
2022/03/27 04:55:35;;;;;;;10.63;7.18;;;;;;;2.00;60.53;95759.03;5028943;28;20041;-68
2022/03/27 04:58:00;;;;;;;20.35;12.35;;;;;;;1.98;59.69;95775.38;5037308;28;20033;-68
2022/03/27 05:00:26;;;;;;;18.52;10.05;;;;;;;2.04;59.75;95762.34;5047223;28;20021;-68
2022/03/27 05:02:51;;;;;;;14.75;7.82;;;;;;;2.09;60.90;95770.72;5030529;28;20030;-68
2022/03/27 05:05:17;;;;;;;19.88;11.38;;;;;;;2.29;60.08;95782.00;5029484;28;20034;-68
2022/03/27 05:07:43;;;;;;;13.63;7.50;;;;;;;2.24;60.01;95783.00;5042062;28;20024;-68
2022/03/27 05:10:09;;;;;;;15.23;7.20;;;;;;;2.22;60.14;95782.22;5032743;28;20037;-68
2022/03/27 05:12:35;;;;;;;11.95;6.72;;;;;;;2.33;59.54;95792.09;5032500;28;20029;-68
2022/03/27 05:15:01;;;;;;;10.75;6.18;;;;;;;2.30;60.54;95787.06;5050477;28;20552;-68
2022/03/27 05:17:27;;;;;;;10.77;6.00;;;;;;;2.63;59.27;95790.16;5019161;28;20121;-68
2022/03/27 05:19:52;;;;;;;24.83;11.52;;;;;;;4.25;53.45;95803.50;5029284;28;20057;-68
2022/03/27 05:22:17;;;;;;;19.17;9.85;;;;;;;5.47;50.67;95801.53;5032180;28;20025;-68
2022/03/27 05:24:44;;;;;;;17.40;8.35;;;;;;;6.47;48.36;95799.28;5034092;28;20048;-68
2022/03/27 05:27:10;;;;;;;17.17;6.88;;;;;;;7.61;45.54;95794.91;5032809;28;20327;-68
2022/03/27 05:29:35;;;;;;;12.82;6.18;;;;;;;8.16;44.38;95790.09;5051300;28;20068;-68
2022/03/27 05:32:01;;;;;;;10.02;5.65;;;;;;;8.76;43.25;95784.03;5053881;28;20021;-68
2022/03/27 05:34:26;;;;;;;17.88;7.45;;;;;;;8.74;42.47;95784.09;5053760;28;20028;-68
2022/03/27 05:36:51;;;;;;;14.30;7.03;;;;;;;9.09;42.11;95786.31;5035558;28;20026;-68
2022/03/27 05:39:17;;;;;;;11.90;6.22;;;;;;;8.35;43.57;95780.31;5032680;28;20025;-68
2022/03/27 05:41:43;;;;;;;14.73;7.05;;;;;;;8.07;44.54;95796.63;5034548;28;20568;-68
2022/03/27 05:44:09;;;;;;;12.63;7.28;;;;;;;8.15;44.62;95791.03;5032587;28;20025;-69
2022/03/27 05:46:34;;;;;;;13.68;8.00;;;;;;;7.65;45.03;95799.91;5016174;28;20041;-68
2022/03/27 05:48:59;;;;;;;13.32;6.88;;;;;;;7.76;46.36;95788.03;5032496;28;20029;-68
2022/03/27 05:51:25;;;;;;;12.93;7.25;;;;;;;7.71;46.57;95786.63;5029555;28;20025;-68
2022/03/27 05:53:50;;;;;;;14.50;7.68;;;;;;;7.69;46.59;95789.31;5049905;28;20042;-69
2022/03/27 05:56:16;;;;;;;12.45;6.78;;;;;;;7.98;46.11;95797.16;5031500;28;20036;-68
2022/03/27 05:58:41;;;;;;;23.13;9.57;;;;;;;8.27;44.75;95804.09;5050577;28;20029;-68
2022/03/27 06:01:07;;;;;;;20.42;11.40;;;;;;;8.07;44.84;95807.81;5046694;28;20041;-68
2022/03/27 06:03:33;;;;;;;27.40;15.48;;;;;;;8.07;44.29;95806.97;5051450;28;20032;-68
2022/03/27 06:05:58;;;;;;;36.90;18.75;;;;;;;7.95;43.70;95798.16;5049893;28;20044;-68
2022/03/27 06:08:24;;;;;;;28.50;14.70;;;;;;;8.31;42.75;95799.56;5048965;28;20637;-68
2022/03/27 06:10:49;;;;;;;27.65;13.50;;;;;;;8.67;41.32;95808.72;5048569;28;20041;-68
2022/03/27 06:13:16;;;;;;;22.98;11.48;;;;;;;8.93;42.10;95807.16;5049548;28;20502;-68
2022/03/27 06:15:41;;;;;;;22.73;12.15;;;;;;;9.20;40.62;95814.19;5045622;28;20055;-68
2022/03/27 06:18:10;;;;;;;21.52;12.00;;;;;;;9.09;42.00;95801.88;5032413;28;20507;-68
2022/03/27 06:20:36;;;;;;;21.88;11.98;;;;;;;9.24;41.26;95811.28;5003749;28;21092;-68
2022/03/27 06:23:03;;;;;;;26.80;13.43;;;;;;;9.45;39.57;95800.53;5032266;28;20095;-69
2022/03/27 06:25:28;;;;;;;26.80;14.68;;;;;;;9.57;39.64;95791.97;5049590;28;20055;-68
2022/03/27 06:27:54;;;;;;;28.75;14.00;;;;;;;9.89;40.04;95799.44;5034036;28;20041;-68
2022/03/27 06:30:21;;;;;;;27.55;13.85;;;;;;;10.12;40.05;95808.34;5030621;28;20075;-68
2022/03/27 06:32:46;;;;;;;27.92;13.60;;;;;;;10.34;38.94;95806.03;5029804;28;20076;-68
2022/03/27 06:35:12;;;;;;;37.70;15.90;;;;;;;10.19;39.63;95794.84;5032540;28;20474;-69
2022/03/27 06:37:38;;;;;;;28.27;14.88;;;;;;;10.48;38.81;95799.94;5033524;28;20029;-68
2022/03/27 06:40:05;;;;;;;43.65;19.45;;;;;;;10.76;38.39;95803.28;5032569;28;20079;-68
2022/03/27 06:42:30;;;;;;;53.65;22.45;;;;;;;10.46;38.57;95799.19;5046783;28;20868;-69
2022/03/27 06:44:56;;;;;;;39.13;19.08;;;;;;;10.64;38.16;95799.72;5047557;28;20032;-68
2022/03/27 06:47:23;;;;;;;34.33;19.13;;;;;;;10.91;37.62;95807.41;5031318;28;20025;-69
2022/03/27 06:49:49;;;;;;;34.35;19.50;;;;;;;11.12;37.06;95800.75;5050170;28;20114;-68
2022/03/27 06:52:15;;;;;;;37.22;20.75;;;;;;;11.31;38.04;95799.44;5025486;28;20127;-68
2022/03/27 06:54:41;;;;;;;39.95;19.50;;;;;;;11.39;37.26;95794.53;5032716;28;20550;-72
2022/03/27 06:57:06;;;;;;;29.77;15.27;;;;;;;11.63;36.01;95808.41;5027152;28;20033;-69
2022/03/27 07:03:01;;;;;;;25.65;13.43;;;;;;;11.57;35.20;95811.47;5049557;28;20414;-70
2022/03/27 07:05:02;;;;;;;24.90;10.85;;;;;;;12.07;34.58;95809.63;5047797;28;20032;-71
2022/03/27 07:07:28;;;;;;;36.20;19.88;;;;;;;12.26;34.35;95823.91;5029156;28;20499;-72
2022/03/27 07:09:54;;;;;;;26.13;11.75;;;;;;;12.40;33.72;95818.50;5007625;28;20040;-69
2022/03/27 07:12:19;;;;;;;19.50;10.60;;;;;;;12.35;33.19;95812.81;5031066;28;20040;-68
2022/03/27 07:14:46;;;;;;;27.20;17.60;;;;;;;12.49;33.01;95817.81;5048330;28;20431;-69
2022/03/27 07:17:14;;;;;;;26.75;18.20;;;;;;;12.61;32.51;95816.06;5046330;28;20091;-68
2022/03/27 07:19:39;;;;;;;25.20;14.65;;;;;;;12.80;32.29;95825.94;5040725;28;20041;-72
2022/03/27 07:22:06;;;;;;;22.02;11.30;;;;;;;12.87;32.43;95821.09;5048607;28;20410;-69
2022/03/27 07:24:31;;;;;;;31.40;13.77;;;;;;;13.08;32.04;95813.41;5051230;28;20029;-69
2022/03/27 07:26:56;;;;;;;22.38;12.90;;;;;;;13.14;31.59;95810.31;5050444;28;20040;-68
2022/03/27 07:29:22;;;;;;;24.45;10.65;;;;;;;12.83;31.70;95789.19;5051760;28;20445;-69
2022/03/27 07:31:49;;;;;;;21.48;11.95;;;;;;;13.22;31.68;95807.94;5050533;28;20021;-69
2022/03/27 07:34:16;;;;;;;23.58;10.15;;;;;;;13.12;31.14;95791.34;5051563;28;20090;-69
2022/03/27 07:36:41;;;;;;;21.20;10.13;;;;;;;13.24;31.50;95806.06;5050474;28;20483;-69
2022/03/27 07:39:07;;;;;;;26.48;11.48;;;;;;;13.40;31.63;95811.78;5033762;28;20043;-69
2022/03/27 07:41:32;;;;;;;26.85;11.57;;;;;;;13.52;30.55;95796.09;5051874;28;20025;-68
2022/03/27 07:43:58;;;;;;;24.48;11.73;;;;;;;13.60;30.65;95797.16;5050685;28;20033;-69
2022/03/27 07:46:23;;;;;;;26.15;13.02;;;;;;;13.65;30.35;95804.63;5051787;28;20017;-69
2022/03/27 07:48:49;;;;;;;32.20;13.70;;;;;;;13.80;30.15;95803.41;5050077;28;20443;-69
2022/03/27 07:51:14;;;;;;;19.00;11.95;;;;;;;14.02;30.24;95786.00;5050144;28;20021;-68
2022/03/27 07:53:40;;;;;;;21.30;11.25;;;;;;;14.19;28.76;95782.84;5050000;28;20094;-69
2022/03/27 07:56:05;;;;;;;20.48;11.88;;;;;;;14.01;28.51;95779.09;5033382;28;20047;-68
2022/03/27 07:58:31;;;;;;;22.17;12.07;;;;;;;14.27;28.36;95785.66;5033439;28;20039;-69
2022/03/27 08:00:56;;;;;;;24.05;12.27;;;;;;;14.49;28.64;95786.50;5033407;28;20463;-69
2022/03/27 08:03:22;;;;;;;24.63;12.50;;;;;;;14.66;28.37;95780.72;5051087;28;20029;-69
2022/03/27 08:05:47;;;;;;;23.80;13.25;;;;;;;14.87;28.45;95782.47;5051328;28;20025;-69
2022/03/27 08:08:12;;;;;;;29.70;15.77;;;;;;;14.96;28.20;95787.78;5051002;28;20037;-69
2022/03/27 08:10:38;;;;;;;27.38;14.35;;;;;;;15.05;27.84;95780.91;5050907;28;20024;-69
2022/03/27 08:13:03;;;;;;;31.00;14.88;;;;;;;15.11;27.47;95784.81;5049985;28;20072;-69
2022/03/27 08:15:29;;;;;;;37.42;17.58;;;;;;;15.11;28.01;95775.16;5049680;28;20024;-69
2022/03/27 08:17:54;;;;;;;35.55;19.20;;;;;;;15.23;27.48;95783.72;5049374;28;20041;-69
2022/03/27 08:20:21;;;;;;;33.55;15.65;;;;;;;15.30;27.58;95777.03;5033286;28;20091;-69
2022/03/27 08:22:47;;;;;;;25.77;13.70;;;;;;;15.27;27.12;95774.69;5033108;28;20415;-69
2022/03/27 08:26:55;;;;;;;24.35;14.15;;;;;;;15.38;27.30;95776.38;5049552;28;20060;-69
2022/03/27 08:27:57;;;;;;;25.02;14.20;;;;;;;15.27;27.52;95763.38;5048423;28;20037;-70
2022/03/27 08:30:23;;;;;;;30.35;14.27;;;;;;;15.36;27.06;95762.56;5048233;28;20104;-71
2022/03/27 08:32:48;;;;;;;22.65;13.65;;;;;;;15.44;28.03;95770.59;5049248;28;20466;-69
2022/03/27 08:35:14;;;;;;;28.63;15.13;;;;;;;15.58;27.47;95762.34;5048282;28;20040;-69
2022/03/27 08:37:40;;;;;;;30.20;15.40;;;;;;;15.69;27.35;95742.28;5044668;28;20026;-71
2022/03/27 08:40:06;;;;;;;22.98;14.45;;;;;;;15.93;25.55;95753.19;5056681;28;20077;-70
2022/03/27 08:42:31;;;;;;;26.90;14.48;;;;;;;15.94;25.62;95760.09;5032352;28;20567;-70
2022/03/27 08:44:57;;;;;;;27.30;13.63;;;;;;;16.04;25.32;95760.09;5031898;28;20407;-70
2022/03/27 08:47:24;;;;;;;26.77;13.43;;;;;;;16.20;24.24;95767.41;5032413;28;20442;-70
2022/03/27 08:50:00;;;;;;;25.27;14.10;;;;;;;16.27;24.34;95753.63;5049108;28;20086;-68
2022/03/27 08:52:50;;;;;;;35.50;15.27;;;;;;;16.39;24.34;95748.22;5030974;28;20041;-71
2022/03/27 08:55:37;;;;;;;28.43;13.67;;;;;;;16.48;24.69;95752.63;5044500;28;20402;-71
2022/03/27 08:58:03;;;;;;;22.80;12.25;;;;;;;16.62;24.17;95735.59;5040958;28;20046;-71
2022/03/27 09:00:31;;;;;;;21.67;12.05;;;;;;;16.66;24.12;95739.59;5018342;28;20384;-70
2022/03/27 09:03:02;;;;;;;20.45;12.70;;;;;;;16.65;24.34;95730.06;5038290;28;20037;-71
2022/03/27 09:05:27;;;;;;;27.33;13.60;;;;;;;16.69;24.75;95755.06;5052768;28;20040;-68
2022/03/27 09:07:54;;;;;;;26.73;13.73;;;;;;;16.77;24.11;95764.88;5049051;28;20033;-72
2022/03/27 09:10:19;;;;;;;31.65;15.80;;;;;;;16.77;23.88;95755.22;5020783;28;20029;-68
2022/03/27 09:12:45;;;;;;;30.80;15.60;;;;;;;16.84;23.94;95751.03;5047948;28;20098;-68
2022/03/27 09:15:11;;;;;;;26.33;12.60;;;;;;;16.84;23.47;95740.53;5054164;28;20029;-68
2022/03/27 09:17:54;;;;;;;23.27;13.07;;;;;;;16.95;24.03;95744.78;5051836;28;20031;-69
2022/03/27 09:20:39;;;;;;;42.58;17.63;;;;;;;17.10;23.63;95740.72;5052176;28;20116;-69
2022/03/27 09:23:11;;;;;;;33.88;13.73;;;;;;;17.15;23.46;95745.53;5020094;28;20500;-68
2022/03/27 09:25:53;;;;;;;28.23;13.27;;;;;;;17.10;23.71;95739.91;5000821;28;20028;-68
2022/03/27 09:28:22;;;;;;;26.65;13.50;;;;;;;17.23;23.27;95745.66;5018979;28;20069;-69
2022/03/27 09:30:48;;;;;;;23.42;12.85;;;;;;;17.27;23.21;95719.91;5046065;28;20029;-69
2022/03/27 09:33:32;;;;;;;23.83;13.18;;;;;;;17.36;23.28;95730.38;5038063;28;20514;-69
2022/03/27 09:36:04;;;;;;;23.23;12.52;;;;;;;17.45;22.99;95736.56;5034144;28;20024;-69
2022/03/27 09:38:30;;;;;;;26.73;13.07;;;;;;;17.42;23.21;95726.34;5044113;28;20041;-69
2022/03/27 09:40:55;;;;;;;29.58;13.50;;;;;;;17.53;23.30;95725.31;5053746;28;20028;-70
2022/03/27 09:43:22;;;;;;;25.10;13.60;;;;;;;17.51;23.39;95714.13;5053174;28;20083;-69
2022/03/27 09:45:58;;;;;;;27.77;13.02;;;;;;;17.62;22.81;95719.16;5051139;28;20032;-68
2022/03/27 09:48:23;;;;;;;25.77;12.88;;;;;;;17.55;21.95;95704.97;5049499;28;20511;-69
2022/03/27 09:50:50;;;;;;;28.95;13.93;;;;;;;17.60;22.57;95713.22;5033031;28;20109;-68
2022/03/27 09:53:23;;;;;;;30.00;13.88;;;;;;;17.68;23.02;95717.75;5025784;28;20502;-68
2022/03/27 09:55:51;;;;;;;26.75;13.15;;;;;;;17.77;22.36;95727.34;5045430;28;20395;-68
2022/03/27 09:58:38;;;;;;;28.40;12.75;;;;;;;17.78;21.52;95724.63;5048435;28;20488;-68
2022/03/27 10:01:13;;;;;;;23.88;11.93;;;;;;;17.67;21.51;95727.44;5034532;28;20035;-68
2022/03/27 10:04:00;;;;;;;23.60;12.70;;;;;;;17.50;21.49;95712.47;5047003;28;20065;-68
2022/03/27 10:06:27;;;;;;;27.23;13.52;;;;;;;17.59;21.98;95724.72;5047525;28;20029;-68
2022/03/27 10:08:52;;;;;;;29.45;12.57;;;;;;;17.66;21.20;95715.25;5048346;28;20397;-68
2022/03/27 10:11:21;;;;;;;22.38;11.27;;;;;;;17.70;21.33;95710.56;5049945;28;20048;-68
2022/03/27 10:13:46;;;;;;;25.63;12.35;;;;;;;17.84;21.00;95705.63;5015055;28;20036;-68
2022/03/27 10:16:11;;;;;;;22.15;11.15;;;;;;;17.89;20.46;95697.31;5049745;28;20048;-68
2022/03/27 10:18:37;;;;;;;23.92;12.57;;;;;;;17.83;20.76;95676.88;5017200;28;20045;-68
2022/03/27 10:21:02;;;;;;;22.58;12.32;;;;;;;17.90;21.17;95677.91;5050125;28;20479;-68
2022/03/27 10:23:28;;;;;;;25.55;12.02;;;;;;;17.86;21.00;95679.22;5013074;28;20077;-68
2022/03/27 10:25:55;;;;;;;21.60;11.32;;;;;;;17.89;21.12;95688.59;5016470;28;20039;-68
2022/03/27 10:28:21;;;;;;;23.92;10.95;;;;;;;17.93;21.17;95679.41;5048598;28;20029;-68
2022/03/27 10:30:50;;;;;;;26.40;11.35;;;;;;;17.98;20.76;95671.91;5049685;28;20086;-68
2022/03/27 10:33:16;;;;;;;19.65;11.20;;;;;;;17.85;20.22;95659.13;5012631;28;20530;-68
2022/03/27 10:35:50;;;;;;;20.85;10.38;;;;;;;17.94;20.31;95681.06;5029539;28;20052;-68
2022/03/27 10:38:23;;;;;;;19.80;9.35;;;;;;;18.00;19.76;95669.97;5047002;28;20032;-68
2022/03/27 10:41:27;;;;;;;17.20;9.82;;;;;;;18.03;19.85;95664.41;5050873;28;20041;-68
2022/03/27 10:44:26;;;;;;;18.60;11.30;;;;;;;18.15;19.71;95665.78;5032834;28;20084;-68
2022/03/27 10:47:13;;;;;;;19.58;10.77;;;;;;;18.18;19.37;95652.34;5030858;28;20591;-68
2022/03/27 10:49:39;;;;;;;16.17;9.95;;;;;;;18.15;19.79;95659.72;5041569;28;20091;-68
2022/03/27 10:52:05;;;;;;;25.08;10.00;;;;;;;18.27;19.77;95654.03;5048360;28;20036;-68
2022/03/27 10:54:30;;;;;;;17.95;10.27;;;;;;;18.36;19.54;95652.31;5047001;28;20035;-68
2022/03/27 10:56:57;;;;;;;17.67;9.88;;;;;;;18.34;19.50;95656.91;5047740;28;20033;-68
2022/03/27 10:59:26;;;;;;;17.08;9.68;;;;;;;18.48;19.38;95653.69;5045967;28;20501;-69
2022/03/27 11:01:56;;;;;;;16.70;9.75;;;;;;;18.43;18.92;95647.25;5040236;28;20040;-68
2022/03/27 11:04:25;;;;;;;17.42;9.82;;;;;;;18.53;19.15;95650.59;5047820;28;20044;-68
2022/03/27 11:06:51;;;;;;;23.17;12.27;;;;;;;18.60;19.47;95651.63;5026045;28;20174;-68
2022/03/27 11:09:38;;;;;;;20.15;10.50;;;;;;;18.63;19.41;95640.78;5031112;28;20021;-68
2022/03/27 11:12:08;;;;;;;24.98;10.35;;;;;;;18.71;19.55;95637.38;5032082;28;20041;-68
2022/03/27 11:14:52;;;;;;;25.08;11.75;;;;;;;18.72;19.12;95629.31;5048656;28;20403;-68
2022/03/27 11:17:38;;;;;;;19.75;11.32;;;;;;;18.70;19.72;95626.03;5040830;28;20045;-68
2022/03/27 11:20:06;;;;;;;21.25;11.98;;;;;;;18.70;19.97;95626.03;5048985;28;20056;-68
2022/03/27 11:22:44;;;;;;;17.42;10.57;;;;;;;18.74;19.87;95621.28;5030106;28;20627;-68
2022/03/27 11:25:31;;;;;;;25.20;11.23;;;;;;;18.82;20.11;95628.41;5047299;28;20487;-70
2022/03/27 11:28:05;;;;;;;28.60;16.98;;;;;;;18.82;19.19;95612.59;5040688;28;20490;-70
2022/03/27 11:30:31;;;;;;;21.98;10.43;;;;;;;18.83;19.10;95619.50;5035048;28;20031;-72
2022/03/27 11:33:19;;;;;;;24.00;10.63;;;;;;;18.88;18.62;95607.53;5047766;28;20108;-70